createdAt,value
2023-05-09T00:00:42.276Z,13.49
2023-05-09T00:01:42.682Z,13.53
2023-05-09T00:02:43.103Z,13.50
2023-05-09T00:03:43.374Z,13.49
2023-05-09T00:04:43.780Z,13.49
2023-05-09T00:05:44.108Z,13.49
2023-05-09T00:06:44.468Z,13.46
2023-05-09T00:07:44.870Z,13.46
2023-05-09T00:08:45.200Z,13.46
2023-05-09T00:09:45.555Z,13.44
2023-05-09T00:10:45.888Z,13.41
2023-05-09T00:11:46.254Z,13.38
2023-05-09T00:12:46.667Z,13.38
2023-05-09T00:13:46.985Z,13.37
2023-05-09T00:14:47.342Z,13.35
2023-05-09T00:15:47.703Z,13.33
2023-05-09T00:16:48.096Z,13.37
2023-05-09T00:17:48.532Z,13.35
2023-05-09T00:18:48.805Z,13.33
2023-05-09T00:19:49.164Z,13.35
2023-05-09T00:20:49.527Z,13.33
2023-05-09T00:21:49.893Z,13.28
2023-05-09T00:22:50.276Z,13.28
2023-05-09T00:23:50.636Z,13.28
2023-05-09T00:24:50.984Z,13.23
2023-05-09T00:25:51.303Z,13.25
2023-05-09T00:26:51.666Z,13.23
2023-05-09T00:27:52.048Z,13.22
2023-05-09T00:28:52.377Z,13.19
2023-05-09T00:29:52.744Z,13.19
2023-05-09T00:30:53.106Z,13.18
2023-05-09T00:31:53.513Z,13.19
2023-05-09T00:32:53.895Z,13.18
2023-05-09T00:33:54.184Z,13.18
2023-05-09T00:34:54.527Z,13.20
2023-05-09T00:35:54.921Z,13.20
2023-05-09T00:36:55.274Z,13.18
2023-05-09T00:37:55.667Z,13.15
2023-05-09T00:38:55.996Z,13.12
2023-05-09T00:39:56.354Z,13.08
2023-05-09T00:40:56.733Z,13.05
2023-05-09T00:41:57.091Z,13.08
2023-05-09T00:42:57.488Z,13.04
2023-05-09T00:43:57.846Z,13.03
2023-05-09T00:44:58.187Z,13.01
2023-05-09T00:45:58.591Z,13.01
2023-05-09T00:46:58.921Z,13.03
2023-05-09T00:47:59.320Z,13.03
2023-05-09T00:48:59.652Z,13.00
2023-05-09T00:50:00.022Z,13.01
2023-05-09T00:51:00.392Z,13.00
2023-05-09T00:52:00.742Z,12.98
2023-05-09T00:53:01.135Z,12.97
2023-05-09T00:54:01.460Z,12.94
2023-05-09T00:55:01.827Z,12.94
2023-05-09T00:56:02.198Z,12.94
2023-05-09T00:57:02.554Z,12.94
2023-05-09T00:58:02.982Z,12.90
2023-05-09T00:59:03.279Z,12.87
2023-05-09T01:00:03.636Z,12.85
2023-05-09T01:01:04.023Z,12.86
2023-05-09T01:02:04.385Z,12.83
2023-05-09T01:03:04.886Z,12.85
2023-05-09T01:04:05.101Z,12.82
2023-05-09T01:05:05.476Z,12.82
2023-05-09T01:06:05.836Z,12.83
2023-05-09T01:07:06.196Z,12.80
2023-05-09T01:08:06.583Z,12.79
2023-05-09T01:09:06.912Z,12.78
2023-05-09T01:10:07.283Z,12.76
2023-05-09T01:11:07.652Z,12.76
2023-05-09T01:12:08.052Z,12.73
2023-05-09T01:13:08.416Z,12.68
2023-05-09T01:14:08.715Z,12.68
2023-05-09T01:15:09.066Z,12.70
2023-05-09T01:16:09.487Z,12.68
2023-05-09T01:17:09.816Z,12.67
2023-05-09T01:18:10.239Z,12.67
2023-05-09T01:19:10.523Z,12.70
2023-05-09T01:20:10.926Z,12.67
2023-05-09T01:21:11.255Z,12.65
2023-05-09T01:22:11.627Z,12.64
2023-05-09T01:23:11.965Z,12.61
2023-05-09T01:24:12.282Z,12.61
2023-05-09T01:25:12.749Z,12.60
2023-05-09T01:26:13.049Z,12.55
2023-05-09T01:27:13.374Z,12.54
2023-05-09T01:28:13.768Z,12.53
2023-05-09T01:29:14.099Z,12.53
2023-05-09T01:30:14.455Z,12.54
2023-05-09T01:31:14.828Z,12.55
2023-05-09T01:32:15.193Z,12.55
2023-05-09T01:33:15.547Z,12.49
2023-05-09T01:34:15.876Z,12.47
2023-05-09T01:35:16.446Z,12.46
2023-05-09T01:36:16.590Z,12.43
2023-05-09T01:37:16.970Z,12.42
2023-05-09T01:38:17.353Z,12.39
2023-05-09T01:39:17.707Z,12.37
2023-05-09T01:40:18.073Z,12.36
2023-05-09T01:41:18.431Z,12.31
2023-05-09T01:42:18.807Z,12.28
2023-05-09T01:43:19.202Z,12.29
2023-05-09T01:44:19.530Z,12.31
2023-05-09T01:45:19.865Z,12.31
2023-05-09T01:46:20.267Z,12.29
2023-05-09T01:47:20.590Z,12.27
2023-05-09T01:48:20.976Z,12.27
2023-05-09T01:49:21.301Z,12.22
2023-05-09T01:50:21.678Z,12.25
2023-05-09T01:51:22.061Z,12.25
2023-05-09T01:52:22.418Z,12.22
2023-05-09T01:53:22.808Z,12.18
2023-05-09T01:54:23.159Z,12.20
2023-05-09T01:55:23.515Z,12.17
2023-05-09T01:56:23.883Z,12.12
2023-05-09T01:57:24.281Z,12.09
2023-05-09T01:58:24.616Z,12.06
2023-05-09T01:59:24.977Z,12.04
2023-05-09T02:00:25.353Z,12.00
2023-05-09T02:01:25.714Z,11.95
2023-05-09T02:02:26.177Z,11.95
2023-05-09T02:03:26.462Z,11.94
2023-05-09T02:04:26.785Z,11.88
2023-05-09T02:05:27.151Z,11.90
2023-05-09T02:06:27.511Z,11.90
2023-05-09T02:07:27.884Z,11.90
2023-05-09T02:08:28.254Z,11.90
2023-05-09T02:09:28.631Z,11.88
2023-05-09T02:10:28.955Z,11.86
2023-05-09T02:11:29.325Z,11.84
2023-05-09T02:12:29.687Z,11.83
2023-05-09T02:13:30.075Z,11.78
2023-05-09T02:14:30.410Z,11.77
2023-05-09T02:15:30.741Z,11.73
2023-05-09T02:16:31.244Z,11.70
2023-05-09T02:17:31.476Z,11.72
2023-05-09T02:18:31.829Z,11.72
2023-05-09T02:19:32.163Z,11.72
2023-05-09T02:20:32.518Z,11.72
2023-05-09T02:21:32.894Z,11.72
2023-05-09T02:22:33.224Z,11.68
2023-05-09T02:23:33.604Z,11.68
2023-05-09T02:24:33.974Z,11.65
2023-05-09T02:25:34.306Z,11.60
2023-05-09T02:26:34.682Z,11.59
2023-05-09T02:27:35.034Z,11.52
2023-05-09T02:28:35.453Z,11.51
2023-05-09T02:29:35.772Z,11.51
2023-05-09T02:30:36.120Z,11.48
2023-05-09T02:31:36.551Z,11.50
2023-05-09T02:32:36.831Z,11.55
2023-05-09T02:33:37.208Z,11.60
2023-05-09T02:34:37.532Z,11.60
2023-05-09T02:35:37.913Z,11.62
2023-05-09T02:36:38.266Z,11.59
2023-05-09T02:37:38.617Z,11.55
2023-05-09T02:38:39.026Z,11.52
2023-05-09T02:39:39.367Z,11.50
2023-05-09T02:40:39.713Z,11.45
2023-05-09T02:41:40.068Z,11.47
2023-05-09T02:42:40.428Z,11.48
2023-05-09T02:43:43.577Z,11.48
2023-05-09T02:44:41.171Z,11.45
2023-05-09T02:45:41.628Z,11.43
2023-05-09T02:46:47.783Z,11.36
2023-05-09T02:47:42.104Z,11.35
2023-05-09T02:48:42.264Z,11.36
2023-05-09T02:49:42.536Z,11.32
2023-05-09T02:50:42.890Z,11.29
2023-05-09T02:51:43.217Z,11.26
2023-05-09T02:52:43.454Z,11.23
2023-05-09T02:53:43.785Z,11.19
2023-05-09T02:54:44.055Z,11.19
2023-05-09T02:55:44.364Z,11.22
2023-05-09T02:56:44.719Z,11.18
2023-05-09T02:57:44.968Z,11.14
2023-05-09T02:58:45.149Z,11.12
2023-05-09T02:59:45.435Z,11.14
2023-05-09T03:00:45.727Z,11.12
2023-05-09T03:01:46.037Z,11.08
2023-05-09T03:02:46.315Z,11.04
2023-05-09T03:03:46.862Z,11.02
2023-05-09T03:04:46.869Z,11.02
2023-05-09T03:05:47.050Z,11.00
2023-05-09T03:06:47.327Z,10.97
2023-05-09T03:07:47.600Z,10.97
2023-05-09T03:08:47.788Z,10.97
2023-05-09T03:09:47.945Z,10.94
2023-05-09T03:10:48.107Z,10.93
2023-05-09T03:11:48.389Z,10.93
2023-05-09T03:12:48.573Z,10.92
2023-05-09T03:13:48.848Z,10.90
2023-05-09T03:14:49.001Z,10.90
2023-05-09T03:15:49.192Z,10.89
2023-05-09T03:16:49.439Z,10.90
2023-05-09T03:17:49.774Z,10.92
2023-05-09T03:18:49.937Z,10.92
2023-05-09T03:19:50.202Z,10.92
2023-05-09T03:20:50.366Z,10.92
2023-05-09T03:21:50.667Z,10.92
2023-05-09T03:22:50.968Z,10.89
2023-05-09T03:23:51.158Z,10.87
2023-05-09T03:24:51.313Z,10.92
2023-05-09T03:25:51.606Z,10.87
2023-05-09T03:26:51.786Z,10.86
2023-05-09T03:30:22.669Z,10.79
2023-05-09T03:31:23.865Z,10.78
2023-05-09T03:32:24.193Z,10.79
2023-05-09T03:33:24.343Z,10.81
2023-05-09T03:34:24.538Z,10.82
2023-05-09T03:35:24.741Z,10.79
2023-05-09T03:36:24.992Z,10.78
2023-05-09T03:37:26.927Z,10.76
2023-05-09T03:38:25.351Z,10.72
2023-05-09T03:39:25.674Z,10.72
2023-05-09T03:40:25.803Z,10.72
2023-05-09T03:41:25.978Z,10.69
2023-05-09T03:42:26.275Z,10.72
2023-05-09T03:43:26.462Z,10.72
2023-05-09T03:44:26.671Z,10.72
2023-05-09T03:45:26.825Z,10.71
2023-05-09T03:46:27.083Z,10.71
2023-05-09T03:47:27.201Z,10.69
2023-05-09T03:48:27.395Z,10.69
2023-05-09T03:49:27.722Z,10.69
2023-05-09T03:50:27.988Z,10.67
2023-05-09T03:51:28.149Z,10.63
2023-05-09T03:52:28.336Z,10.64
2023-05-09T03:53:28.497Z,10.64
2023-05-09T03:54:28.811Z,10.63
2023-05-09T03:55:28.978Z,10.64
2023-05-09T03:56:29.157Z,10.67
2023-05-09T03:57:29.464Z,10.68
2023-05-09T03:58:29.756Z,10.69
2023-05-09T03:59:29.969Z,10.71
2023-05-09T04:00:30.221Z,10.72
2023-05-09T04:01:30.420Z,10.74
2023-05-09T04:02:30.776Z,10.72
2023-05-09T04:03:31.070Z,10.69
2023-05-09T04:04:31.213Z,10.68
2023-05-09T04:05:31.355Z,10.67
2023-05-09T04:06:31.548Z,10.68
2023-05-09T04:07:31.759Z,10.63
2023-05-09T04:08:31.906Z,10.61
2023-05-09T04:09:32.097Z,10.60
2023-05-09T04:10:32.255Z,10.60
2023-05-09T04:11:32.420Z,10.60
2023-05-09T04:12:32.596Z,10.61
2023-05-09T04:13:32.761Z,10.67
2023-05-09T04:14:32.960Z,10.69
2023-05-09T04:15:33.126Z,10.72
2023-05-09T04:16:33.371Z,10.74
2023-05-09T04:17:33.492Z,10.78
2023-05-09T04:18:33.652Z,10.89
2023-05-09T04:19:33.882Z,10.97
2023-05-09T04:20:34.043Z,11.02
2023-05-09T04:21:34.236Z,11.10
2023-05-09T04:22:34.469Z,11.12
2023-05-09T04:23:34.618Z,11.25
2023-05-09T04:24:34.822Z,11.35
2023-05-09T04:25:34.980Z,11.36
2023-05-09T04:26:35.172Z,11.41
2023-05-09T04:27:35.358Z,11.43
2023-05-09T04:28:35.555Z,11.37
2023-05-09T04:29:35.761Z,11.37
2023-05-09T04:30:35.943Z,11.43
2023-05-09T04:31:36.220Z,11.44
2023-05-09T04:32:36.358Z,11.51
2023-05-09T04:33:36.480Z,11.55
2023-05-09T04:34:36.693Z,11.65
2023-05-09T04:35:36.894Z,11.70
2023-05-09T04:36:37.096Z,11.70
2023-05-09T04:37:37.287Z,11.75
2023-05-09T04:38:37.430Z,11.84
2023-05-09T04:39:37.678Z,11.94
2023-05-09T04:40:37.800Z,11.97
2023-05-09T04:41:37.999Z,12.00
2023-05-09T04:42:38.313Z,12.04
2023-05-09T04:43:38.375Z,12.06
2023-05-09T04:44:38.607Z,12.12
2023-05-09T04:45:38.745Z,12.24
2023-05-09T04:46:38.996Z,12.28
2023-05-09T04:47:39.124Z,12.28
2023-05-09T04:48:39.306Z,12.31
2023-05-09T04:49:39.520Z,12.28
2023-05-09T04:50:39.684Z,12.28
2023-05-09T04:51:39.882Z,12.27
2023-05-09T04:52:40.065Z,12.39
2023-05-09T04:53:40.226Z,12.37
2023-05-09T04:54:40.419Z,12.45
2023-05-09T04:55:40.609Z,12.54
2023-05-09T04:56:40.804Z,12.50
2023-05-09T04:57:40.990Z,12.47
2023-05-09T04:58:41.196Z,12.46
2023-05-09T04:59:41.394Z,12.45
2023-05-09T05:00:41.547Z,12.43
2023-05-09T05:01:41.788Z,12.57
2023-05-09T05:02:41.938Z,12.40
2023-05-09T05:03:42.101Z,12.46
2023-05-09T05:04:42.347Z,12.72
2023-05-09T05:05:42.525Z,12.76
2023-05-09T05:06:42.650Z,12.80
2023-05-09T05:07:42.847Z,12.85
2023-05-09T05:08:43.019Z,12.90
2023-05-09T05:09:43.238Z,12.80
2023-05-09T05:10:43.401Z,12.78
2023-05-09T05:11:57.068Z,12.83
2023-05-09T05:12:43.799Z,12.86
2023-05-09T05:13:44.019Z,12.94
2023-05-09T05:14:44.164Z,12.95
2023-05-09T05:15:44.426Z,13.05
2023-05-09T05:16:44.505Z,13.03
2023-05-09T05:17:44.725Z,13.13
2023-05-09T05:18:44.879Z,13.20
2023-05-09T05:19:45.075Z,13.25
2023-05-09T05:20:45.234Z,13.13
2023-05-09T05:21:45.423Z,13.19
2023-05-09T05:22:45.641Z,13.41
2023-05-09T05:23:45.788Z,13.28
2023-05-09T05:24:46.018Z,13.22
2023-05-09T05:25:46.173Z,13.19
2023-05-09T05:26:46.363Z,13.19
2023-05-09T05:27:46.538Z,13.27
2023-05-09T05:28:46.742Z,13.35
2023-05-09T05:29:46.952Z,13.38
2023-05-09T05:30:47.086Z,13.42
2023-05-09T05:31:47.402Z,13.41
2023-05-09T05:32:47.509Z,13.54
2023-05-09T05:33:47.649Z,13.56
2023-05-09T05:34:47.816Z,13.49
2023-05-09T05:35:47.978Z,13.27
2023-05-09T05:36:48.180Z,13.20
2023-05-09T05:37:49.103Z,13.18
2023-05-09T05:38:48.528Z,13.27
2023-05-09T05:39:48.753Z,13.38
2023-05-09T05:40:48.879Z,13.52
2023-05-09T05:41:49.068Z,13.37
2023-05-09T05:42:49.268Z,13.27
2023-05-09T05:43:49.509Z,13.22
2023-05-09T05:44:49.700Z,13.15
2023-05-09T05:45:49.898Z,13.15
2023-05-09T05:46:50.010Z,13.18
2023-05-09T05:47:50.356Z,13.12
2023-05-09T05:48:50.404Z,13.20
2023-05-09T05:49:50.626Z,13.39
2023-05-09T05:50:50.777Z,13.53
2023-05-09T05:51:50.975Z,13.54
2023-05-09T05:52:51.159Z,13.59
2023-05-09T05:53:51.341Z,13.63
2023-05-09T05:54:51.802Z,13.54
2023-05-09T05:55:51.715Z,13.57
2023-05-09T05:56:51.911Z,13.74
2023-05-09T05:57:52.076Z,13.85
2023-05-09T05:58:52.271Z,13.79
2023-05-09T05:59:52.485Z,13.90
2023-05-09T06:00:52.635Z,14.07
2023-05-09T06:01:52.899Z,14.14
2023-05-09T06:02:53.112Z,14.35
2023-05-09T06:03:53.278Z,14.25
2023-05-09T06:04:55.326Z,14.20
2023-05-09T06:05:53.549Z,14.03
2023-05-09T06:06:53.738Z,14.05
2023-05-09T06:07:53.929Z,14.14
2023-05-09T06:08:54.125Z,14.14
2023-05-09T06:09:54.341Z,14.15
2023-05-09T06:10:54.507Z,14.33
2023-05-09T06:11:54.697Z,14.43
2023-05-09T06:12:54.901Z,14.44
2023-05-09T06:13:55.074Z,14.47
2023-05-09T06:14:55.269Z,14.50
2023-05-09T06:15:57.702Z,14.62
2023-05-09T06:16:55.682Z,14.72
2023-05-09T06:17:55.930Z,14.72
2023-05-09T06:18:56.341Z,14.45
2023-05-09T06:19:56.210Z,14.44
2023-05-09T06:20:56.400Z,14.47
2023-05-09T06:21:56.588Z,14.40
2023-05-09T06:22:56.768Z,14.30
2023-05-09T06:24:08.501Z,14.11
2023-05-09T06:24:57.179Z,13.96
2023-05-09T06:25:57.374Z,14.00
2023-05-09T06:26:57.562Z,13.99
2023-05-09T06:27:57.747Z,13.93
2023-05-09T06:28:57.948Z,13.99
2023-05-09T06:29:58.142Z,14.05
2023-05-09T06:30:58.309Z,14.08
2023-05-09T06:31:58.606Z,14.18
2023-05-09T06:32:58.767Z,14.25
2023-05-09T06:33:58.842Z,14.25
2023-05-09T06:34:59.055Z,14.17
2023-05-09T06:35:59.236Z,14.23
2023-05-09T06:36:59.385Z,14.23
2023-05-09T06:37:59.566Z,14.30
2023-05-09T06:38:59.757Z,14.44
2023-05-09T06:39:59.968Z,14.47
2023-05-09T06:41:00.116Z,14.43
2023-05-09T06:42:00.263Z,14.51
2023-05-09T06:43:00.443Z,14.47
2023-05-09T06:44:00.652Z,14.43
2023-05-09T06:45:00.938Z,14.48
2023-05-09T06:46:01.060Z,14.44
2023-05-09T06:47:01.226Z,14.47
2023-05-09T06:48:01.441Z,14.47
2023-05-09T06:49:01.603Z,14.58
2023-05-09T06:50:01.798Z,14.59
2023-05-09T06:51:01.949Z,14.62
2023-05-09T06:52:02.130Z,14.70
2023-05-09T06:53:02.327Z,14.78
2023-05-09T06:54:02.531Z,14.89
2023-05-09T06:55:02.709Z,14.97
2023-05-09T06:56:02.870Z,15.06
2023-05-09T06:57:03.058Z,15.10
2023-05-09T06:58:03.254Z,15.11
2023-05-09T06:59:03.454Z,15.15
2023-05-09T07:00:03.660Z,15.27
2023-05-09T07:01:03.841Z,15.29
2023-05-09T07:02:04.152Z,15.37
2023-05-09T07:03:04.354Z,15.39
2023-05-09T07:04:04.380Z,15.37
2023-05-09T07:05:04.621Z,15.36
2023-05-09T07:06:04.746Z,15.39
2023-05-09T07:07:04.936Z,15.49
2023-05-09T07:08:05.120Z,15.59
2023-05-09T07:09:05.316Z,15.70
2023-05-09T07:10:11.172Z,15.70
2023-05-09T07:11:05.685Z,15.73
2023-05-09T07:12:05.894Z,15.73
2023-05-09T07:13:06.080Z,15.76
2023-05-09T07:14:06.265Z,15.80
2023-05-09T07:15:06.440Z,15.82
2023-05-09T07:16:06.753Z,15.75
2023-05-09T07:17:22.035Z,15.86
2023-05-09T07:18:07.031Z,15.94
2023-05-09T07:19:07.135Z,15.83
2023-05-09T07:20:07.346Z,15.88
2023-05-09T07:21:07.512Z,15.90
2023-05-09T07:22:07.805Z,16.02
2023-05-09T07:23:07.896Z,16.05
2023-05-09T07:24:08.089Z,16.17
2023-05-09T07:25:08.343Z,16.26
2023-05-09T07:26:08.476Z,16.31
2023-05-09T07:27:08.631Z,16.31
2023-05-09T07:28:08.850Z,16.24
2023-05-09T07:29:09.061Z,16.16
2023-05-09T07:30:09.291Z,16.15
2023-05-09T07:31:09.424Z,16.32
2023-05-09T07:32:09.639Z,16.36
2023-05-09T07:33:09.776Z,16.26
2023-05-09T07:34:09.948Z,16.36
2023-05-09T07:35:10.180Z,16.49
2023-05-09T07:36:10.321Z,16.58
2023-05-09T07:37:10.797Z,16.68
2023-05-09T07:38:10.716Z,16.64
2023-05-09T07:39:10.888Z,16.57
2023-05-09T07:40:11.110Z,16.51
2023-05-09T07:41:11.258Z,16.53
2023-05-09T07:42:11.455Z,16.50
2023-05-09T07:43:11.597Z,16.60
2023-05-09T07:44:11.794Z,16.66
2023-05-09T07:45:12.032Z,16.71
2023-05-09T07:46:12.246Z,16.69
2023-05-09T07:47:12.336Z,16.58
2023-05-09T07:48:12.551Z,16.56
2023-05-09T07:49:12.731Z,16.54
2023-05-09T07:50:12.920Z,16.53
2023-05-09T07:51:13.089Z,16.57
2023-05-09T07:52:13.244Z,16.65
2023-05-09T07:53:13.451Z,16.66
2023-05-09T07:54:13.624Z,16.69
2023-05-09T07:55:14.145Z,16.74
2023-05-09T07:56:13.994Z,16.76
2023-05-09T07:57:14.196Z,16.81
2023-05-09T07:58:14.366Z,16.81
2023-05-09T07:59:14.567Z,16.76
2023-05-09T08:00:14.779Z,16.79
2023-05-09T08:01:14.944Z,16.83
2023-05-09T08:02:15.197Z,16.84
2023-05-09T08:03:15.624Z,16.84
2023-05-09T08:04:15.501Z,16.84
2023-05-09T08:05:15.989Z,16.84
2023-05-09T08:06:15.846Z,16.89
2023-05-09T08:07:16.056Z,16.96
2023-05-09T08:08:16.281Z,16.93
2023-05-09T08:09:16.413Z,16.93
2023-05-09T08:10:16.686Z,16.97
2023-05-09T08:11:16.778Z,16.97
2023-05-09T08:12:16.984Z,17.01
2023-05-09T08:13:17.216Z,17.01
2023-05-09T08:14:17.362Z,17.05
2023-05-09T08:15:17.738Z,17.14
2023-05-09T08:16:17.823Z,17.23
2023-05-09T08:17:17.941Z,17.36
2023-05-09T08:18:18.130Z,17.49
2023-05-09T08:19:18.323Z,17.54
2023-05-09T08:20:18.544Z,17.57
2023-05-09T08:21:20.814Z,17.57
2023-05-09T08:22:18.900Z,17.67
2023-05-09T08:23:19.089Z,17.65
2023-05-09T08:24:19.282Z,17.57
2023-05-09T08:25:19.493Z,17.59
2023-05-09T08:26:19.668Z,17.72
2023-05-09T08:27:19.875Z,17.82
2023-05-09T08:28:20.933Z,17.90
2023-05-09T08:29:20.223Z,17.98
2023-05-09T08:30:20.448Z,18.10
2023-05-09T08:31:20.614Z,18.29
2023-05-09T08:32:20.751Z,18.29
2023-05-09T08:33:20.945Z,18.38
2023-05-09T08:34:21.140Z,18.52
2023-05-09T08:35:21.366Z,18.62
2023-05-09T08:36:21.527Z,18.65
2023-05-09T08:37:21.721Z,18.78
2023-05-09T08:38:21.940Z,18.90
2023-05-09T08:39:22.106Z,19.02
2023-05-09T08:40:22.472Z,19.00
2023-05-09T08:41:22.474Z,18.92
2023-05-09T08:42:25.521Z,18.73
2023-05-09T08:43:22.886Z,18.80
2023-05-09T08:44:23.053Z,18.89
2023-05-09T08:45:23.252Z,19.00
2023-05-09T08:46:23.462Z,19.16
2023-05-09T08:47:23.627Z,19.37
2023-05-09T08:48:23.796Z,19.29
2023-05-09T08:49:23.955Z,19.24
2023-05-09T08:50:24.180Z,19.27
2023-05-09T08:51:24.360Z,19.30
2023-05-09T08:52:24.522Z,19.21
2023-05-09T08:53:24.714Z,19.31
2023-05-09T08:54:24.893Z,19.39
2023-05-09T08:55:25.132Z,19.51
2023-05-09T08:56:25.288Z,19.58
2023-05-09T08:57:25.473Z,19.67
2023-05-09T08:58:25.657Z,19.82
2023-05-09T08:59:25.838Z,20.06
2023-05-09T09:00:26.057Z,20.18
2023-05-09T09:01:26.272Z,20.29
2023-05-09T09:02:26.455Z,20.25
2023-05-09T09:03:26.622Z,20.18
2023-05-09T09:04:26.833Z,19.92
2023-05-09T09:05:40.692Z,20.00
2023-05-09T09:06:27.185Z,20.09
2023-05-09T09:07:28.389Z,20.09
2023-05-09T09:08:27.611Z,20.26
2023-05-09T09:09:27.756Z,20.21
2023-05-09T09:10:27.951Z,20.10
2023-05-09T09:11:28.130Z,20.25
2023-05-09T09:12:28.329Z,20.50
2023-05-09T09:13:28.634Z,20.52
2023-05-09T09:14:28.711Z,20.43
2023-05-09T09:15:28.940Z,20.37
2023-05-09T09:16:29.188Z,20.25
2023-05-09T09:17:29.346Z,20.39
2023-05-09T09:18:29.518Z,20.40
2023-05-09T09:19:29.718Z,20.52
2023-05-09T09:20:29.936Z,20.44
2023-05-09T09:21:30.101Z,20.47
2023-05-09T09:22:30.285Z,20.59
2023-05-09T09:23:30.505Z,20.80
2023-05-09T09:24:30.681Z,20.88
2023-05-09T09:25:30.905Z,21.09
2023-05-09T09:26:31.044Z,21.27
2023-05-09T09:27:31.237Z,21.27
2023-05-09T09:28:31.442Z,21.42
2023-05-09T09:29:31.653Z,21.45
2023-05-09T09:30:31.872Z,21.36
2023-05-09T09:31:32.097Z,21.11
2023-05-09T09:32:32.266Z,20.87
2023-05-09T09:33:32.463Z,20.80
2023-05-09T09:34:33.915Z,20.90
2023-05-09T09:35:32.895Z,21.05
2023-05-09T09:36:33.082Z,21.03
2023-05-09T09:37:33.260Z,21.15
2023-05-09T09:38:33.464Z,21.03
2023-05-09T09:39:33.671Z,21.12
2023-05-09T09:40:33.917Z,21.29
2023-05-09T09:41:34.043Z,21.46
2023-05-09T09:42:34.264Z,21.64
2023-05-09T09:43:34.474Z,21.73
2023-05-09T09:44:34.682Z,21.80
2023-05-09T09:45:34.938Z,21.73
2023-05-09T09:46:35.180Z,21.64
2023-05-09T09:47:35.348Z,21.77
2023-05-09T09:48:35.558Z,21.69
2023-05-09T09:49:35.659Z,21.70
2023-05-09T09:50:35.833Z,21.75
2023-05-09T09:51:36.023Z,21.95
2023-05-09T09:52:36.222Z,21.99
2023-05-09T09:53:36.442Z,21.92
2023-05-09T09:54:36.646Z,21.82
2023-05-09T09:55:36.859Z,21.83
2023-05-09T09:56:37.096Z,21.72
2023-05-09T09:57:37.288Z,21.80
2023-05-09T09:58:37.503Z,21.80
2023-05-09T09:59:37.716Z,21.99
2023-05-09T10:00:37.940Z,22.25
2023-05-09T10:01:38.140Z,22.28
2023-05-09T10:02:38.961Z,22.41
2023-05-09T10:03:38.577Z,22.38
2023-05-09T10:04:38.838Z,22.51
2023-05-09T10:05:38.997Z,22.25
2023-05-09T10:06:39.174Z,21.99
2023-05-09T10:07:39.334Z,21.72
2023-05-09T10:08:39.547Z,21.89
2023-05-09T10:09:39.758Z,21.83
2023-05-09T10:10:39.986Z,21.89
2023-05-09T10:11:40.204Z,21.99
2023-05-09T10:12:40.472Z,21.95
2023-05-09T10:13:40.594Z,22.14
2023-05-09T10:14:40.816Z,22.36
2023-05-09T10:15:52.310Z,22.33
2023-05-09T10:16:44.462Z,22.18
2023-05-09T10:17:41.577Z,22.44
2023-05-09T10:18:41.912Z,22.75
2023-05-09T10:19:41.817Z,22.78
2023-05-09T10:20:41.995Z,22.73
2023-05-09T10:21:42.230Z,22.54
2023-05-09T10:22:42.418Z,22.70
2023-05-09T10:23:42.615Z,22.39
2023-05-09T10:24:42.828Z,22.28
2023-05-09T10:25:43.047Z,22.38
2023-05-09T10:26:43.299Z,22.38
2023-05-09T10:27:43.466Z,22.51
2023-05-09T10:28:43.648Z,22.23
2023-05-09T10:29:43.872Z,22.06
2023-05-09T10:30:44.046Z,22.30
2023-05-09T10:31:44.343Z,22.76
2023-05-09T10:32:44.508Z,23.05
2023-05-09T10:33:44.672Z,23.02
2023-05-09T10:34:44.862Z,22.81
2023-05-09T10:35:45.045Z,22.72
2023-05-09T10:36:45.224Z,22.60
2023-05-09T10:37:45.483Z,22.38
2023-05-09T10:38:45.640Z,22.38
2023-05-09T10:39:45.843Z,22.60
2023-05-09T10:40:46.065Z,22.70
2023-05-09T10:41:46.247Z,22.63
2023-05-09T10:42:46.505Z,22.57
2023-05-09T10:43:46.675Z,22.65
2023-05-09T10:44:46.858Z,22.85
2023-05-09T10:45:47.070Z,23.00
2023-05-09T10:46:47.348Z,22.54
2023-05-09T10:47:47.548Z,22.32
2023-05-09T10:48:47.658Z,22.57
2023-05-09T10:49:47.835Z,22.76
2023-05-09T10:50:48.106Z,23.06
2023-05-09T10:51:48.267Z,23.02
2023-05-09T10:52:48.487Z,22.96
2023-05-09T10:53:48.749Z,22.83
2023-05-09T10:54:48.881Z,22.99
2023-05-09T10:55:49.078Z,23.12
2023-05-09T10:56:49.242Z,23.25
2023-05-09T10:57:49.479Z,23.39
2023-05-09T10:58:49.731Z,23.20
2023-05-09T10:59:49.842Z,22.91
2023-05-09T11:00:50.048Z,22.84
2023-05-09T11:01:50.301Z,22.63
2023-05-09T11:02:50.553Z,22.68
2023-05-09T11:03:50.800Z,22.81
2023-05-09T11:04:50.857Z,22.68
2023-05-09T11:05:51.087Z,22.94
2023-05-09T11:06:51.673Z,23.25
2023-05-09T11:07:52.345Z,23.15
2023-05-09T11:08:51.680Z,22.96
2023-05-09T11:09:51.932Z,23.12
2023-05-09T11:10:52.091Z,23.40
2023-05-09T11:11:52.303Z,22.99
2023-05-09T11:12:52.584Z,23.21
2023-05-09T11:13:52.725Z,23.32
2023-05-09T11:14:52.908Z,23.13
2023-05-09T11:15:53.188Z,22.98
2023-05-09T11:16:53.297Z,22.87
2023-05-09T11:17:53.567Z,23.08
2023-05-09T11:18:53.740Z,23.03
2023-05-09T11:19:53.968Z,22.91
2023-05-09T11:20:54.157Z,23.12
2023-05-09T11:21:54.329Z,23.09
2023-05-09T11:22:54.544Z,23.24
2023-05-09T11:23:55.335Z,23.40
2023-05-09T11:24:54.929Z,23.25
2023-05-09T11:25:55.133Z,23.10
2023-05-09T11:26:55.318Z,23.12
2023-05-09T11:27:55.536Z,23.05
2023-05-09T11:28:55.708Z,22.88
2023-05-09T11:29:55.944Z,22.85
2023-05-09T11:30:56.618Z,22.93
2023-05-09T11:31:56.350Z,23.15
2023-05-09T11:32:56.598Z,23.17
2023-05-09T11:33:56.713Z,22.99
2023-05-09T11:34:56.938Z,22.96
2023-05-09T11:35:57.158Z,22.90
2023-05-09T11:36:57.337Z,23.06
2023-05-09T11:37:57.569Z,23.17
2023-05-09T11:38:57.761Z,23.15
2023-05-09T11:39:57.940Z,23.02
2023-05-09T11:40:58.930Z,23.05
2023-05-09T11:41:58.342Z,22.59
2023-05-09T11:42:59.036Z,22.62
2023-05-09T11:43:58.761Z,22.96
2023-05-09T11:44:58.912Z,22.93
2023-05-09T11:45:59.145Z,23.27
2023-05-09T11:46:59.308Z,23.37
2023-05-09T11:47:59.551Z,23.51
2023-05-09T11:48:59.706Z,23.56
2023-05-09T11:49:59.910Z,23.50
2023-05-09T11:51:00.145Z,23.25
2023-05-09T11:52:00.358Z,23.25
2023-05-09T11:53:00.552Z,23.51
2023-05-09T11:54:00.716Z,23.59
2023-05-09T11:55:00.921Z,23.41
2023-05-09T11:56:01.135Z,23.20
2023-05-09T11:57:01.344Z,23.17
2023-05-09T11:58:01.591Z,23.31
2023-05-09T11:59:01.754Z,23.34
2023-05-09T12:00:01.951Z,23.62
2023-05-09T12:01:02.182Z,23.66
2023-05-09T12:02:02.354Z,23.84
2023-05-09T12:03:02.620Z,23.98
2023-05-09T12:04:02.865Z,23.32
2023-05-09T12:05:02.951Z,23.32
2023-05-09T12:06:03.113Z,23.34
2023-05-09T12:07:03.288Z,23.34
2023-05-09T12:08:03.487Z,23.12
2023-05-09T12:09:03.669Z,23.13
2023-05-09T12:10:03.887Z,23.39
2023-05-09T12:11:04.103Z,23.24
2023-05-09T12:12:04.304Z,23.36
2023-05-09T12:13:04.563Z,23.31
2023-05-09T12:14:04.691Z,23.03
2023-05-09T12:15:04.923Z,23.21
2023-05-09T12:16:05.101Z,23.36
2023-05-09T12:17:05.290Z,23.50
2023-05-09T12:18:05.798Z,23.55
2023-05-09T12:19:05.737Z,23.66
2023-05-09T12:20:05.938Z,23.81
2023-05-09T12:21:06.101Z,23.84
2023-05-09T12:22:06.292Z,23.78
2023-05-09T12:23:06.521Z,23.83
2023-05-09T12:24:06.706Z,23.63
2023-05-09T12:25:06.914Z,23.18
2023-05-09T12:26:07.109Z,23.00
2023-05-09T12:27:07.314Z,23.06
2023-05-09T12:28:07.518Z,23.23
2023-05-09T12:29:07.684Z,23.40
2023-05-09T12:30:08.137Z,23.43
2023-05-09T12:31:08.129Z,23.31
2023-05-09T12:32:08.304Z,23.15
2023-05-09T12:33:08.508Z,23.02
2023-05-09T12:34:08.678Z,23.15
2023-05-09T12:35:08.851Z,23.10
2023-05-09T12:36:09.082Z,23.21
2023-05-09T12:37:09.240Z,23.48
2023-05-09T12:38:09.516Z,23.43
2023-05-09T12:39:09.686Z,23.27
2023-05-09T12:40:09.867Z,22.91
2023-05-09T12:41:21.955Z,23.08
2023-05-09T12:42:10.266Z,23.34
2023-05-09T12:43:10.598Z,23.61
2023-05-09T12:44:10.709Z,23.88
2023-05-09T12:45:10.980Z,24.16
2023-05-09T12:46:11.150Z,24.10
2023-05-09T12:47:11.501Z,23.83
2023-05-09T12:48:11.724Z,23.83
2023-05-09T12:49:11.713Z,24.08
2023-05-09T12:50:11.921Z,23.87
2023-05-09T12:51:12.193Z,23.87
2023-05-09T12:52:12.324Z,23.88
2023-05-09T12:53:12.554Z,23.84
2023-05-09T12:54:12.697Z,24.03
2023-05-09T12:55:13.185Z,23.88
2023-05-09T12:56:13.192Z,23.99
2023-05-09T12:57:13.337Z,24.10
2023-05-09T12:58:13.575Z,24.11